createdAt,value
2022-12-24T00:00:49.382Z,100.00
2022-12-24T00:02:52.911Z,100.00
2022-12-24T00:05:00.876Z,100.00
2022-12-24T00:07:04.576Z,100.00
2022-12-24T00:09:09.413Z,100.00
2022-12-24T00:11:12.538Z,100.00
2022-12-24T00:13:15.598Z,100.00
2022-12-24T00:15:18.910Z,100.00
2022-12-24T00:17:21.958Z,100.00
2022-12-24T00:19:24.987Z,100.00
2022-12-24T00:21:28.076Z,100.00
2022-12-24T00:23:31.180Z,100.00
2022-12-24T00:25:35.669Z,100.00
2022-12-24T00:27:38.792Z,100.00
2022-12-24T00:29:41.920Z,100.00
2022-12-24T00:31:45.146Z,100.00
2022-12-24T00:33:48.639Z,100.00
2022-12-24T00:35:52.636Z,100.00
2022-12-24T00:37:55.663Z,100.00
2022-12-24T00:39:58.674Z,100.00
2022-12-24T00:42:03.094Z,100.00
2022-12-24T00:44:10.052Z,100.00
2022-12-24T00:46:13.243Z,100.00
2022-12-24T00:48:16.374Z,100.00
2022-12-24T00:50:19.451Z,100.00
2022-12-24T00:52:22.507Z,100.00
2022-12-24T00:54:25.561Z,100.00
2022-12-24T00:56:28.811Z,100.00
2022-12-24T00:58:33.259Z,100.00
2022-12-24T01:00:38.006Z,100.00
2022-12-24T01:02:41.189Z,100.00
2022-12-24T01:05:02.081Z,100.00
2022-12-24T01:07:05.339Z,100.00
2022-12-24T01:09:08.533Z,100.00
2022-12-24T01:11:12.824Z,100.00
2022-12-24T01:13:15.908Z,100.00
2022-12-24T01:15:20.389Z,100.00
2022-12-24T01:17:23.479Z,100.00
2022-12-24T01:19:26.467Z,100.00
2022-12-24T01:21:29.617Z,100.00
2022-12-24T01:23:32.669Z,100.00
2022-12-24T01:25:35.701Z,100.00
2022-12-24T01:27:39.085Z,100.00
2022-12-24T01:29:42.721Z,100.00
2022-12-24T01:31:47.165Z,100.00
2022-12-24T01:33:50.453Z,100.00
2022-12-24T01:35:53.502Z,100.00
2022-12-24T01:37:56.455Z,100.00
2022-12-24T01:40:13.524Z,100.00
2022-12-24T01:42:37.627Z,100.00
2022-12-24T01:44:42.783Z,100.00
2022-12-24T01:46:47.348Z,100.00
2022-12-24T01:48:51.530Z,100.00
2022-12-24T01:50:59.329Z,100.00
2022-12-24T01:53:02.784Z,100.00
2022-12-24T01:55:07.758Z,100.00
2022-12-24T01:57:12.469Z,100.00
2022-12-24T01:59:17.294Z,100.00
2022-12-24T02:01:20.462Z,100.00
2022-12-24T02:03:25.073Z,100.00
2022-12-24T02:05:31.282Z,100.00
2022-12-24T02:07:34.594Z,100.00
2022-12-24T02:09:37.805Z,100.00
2022-12-24T02:11:43.934Z,100.00
2022-12-24T02:13:52.166Z,100.00
2022-12-24T02:16:04.310Z,100.00
2022-12-24T02:18:11.782Z,100.00
2022-12-24T02:20:58.013Z,100.00
2022-12-24T02:23:10.708Z,100.00
2022-12-24T02:25:35.783Z,100.00
2022-12-24T02:27:46.770Z,100.00
2022-12-24T02:30:05.972Z,100.00
2022-12-24T02:32:13.325Z,100.00
2022-12-24T02:34:19.312Z,100.00
2022-12-24T02:36:26.468Z,100.00
2022-12-24T02:38:32.371Z,100.00
2022-12-24T02:40:39.108Z,100.00
2022-12-24T02:42:43.997Z,100.00
2022-12-24T02:44:50.240Z,100.00
2022-12-24T02:46:54.899Z,100.00
2022-12-24T02:48:58.358Z,100.00
2022-12-24T02:51:04.671Z,100.00
2022-12-24T02:53:10.968Z,100.00
2022-12-24T02:55:16.657Z,100.00
2022-12-24T02:57:23.294Z,100.00
2022-12-24T02:59:36.881Z,100.00
2022-12-24T03:01:47.878Z,100.00
2022-12-24T03:04:01.155Z,100.00
2022-12-24T03:06:09.869Z,100.00
2022-12-24T03:08:17.396Z,100.00
2022-12-24T03:10:24.783Z,100.00
2022-12-24T03:12:31.510Z,100.00
2022-12-24T03:14:35.461Z,100.00
2022-12-24T03:16:38.571Z,100.00
2022-12-24T03:18:45.800Z,100.00
2022-12-24T03:20:55.053Z,100.00
2022-12-24T03:22:58.574Z,100.00
2022-12-24T03:25:01.696Z,100.00
2022-12-24T03:27:04.715Z,100.00
2022-12-24T03:29:08.516Z,100.00
2022-12-24T03:31:11.970Z,100.00
2022-12-24T03:33:15.630Z,100.00
2022-12-24T03:35:18.783Z,100.00
2022-12-24T03:37:23.887Z,100.00
2022-12-24T03:39:27.002Z,100.00
2022-12-24T03:41:30.044Z,100.00
2022-12-24T03:43:33.422Z,100.00
2022-12-24T03:45:36.396Z,100.00
2022-12-24T03:47:39.468Z,100.00
2022-12-24T03:49:42.435Z,100.00
2022-12-24T03:51:45.775Z,100.00
2022-12-24T03:53:50.453Z,100.00
2022-12-24T03:55:53.391Z,100.00
2022-12-24T03:57:56.326Z,100.00
2022-12-24T03:59:59.311Z,100.00
2022-12-24T04:02:02.497Z,100.00
2022-12-24T04:04:05.759Z,100.00
2022-12-24T04:06:10.621Z,100.00
2022-12-24T04:08:13.593Z,100.00
2022-12-24T04:10:18.178Z,100.00
2022-12-24T04:12:21.256Z,100.00
2022-12-24T04:14:24.454Z,100.00
2022-12-24T04:16:27.965Z,100.00
2022-12-24T04:18:31.213Z,100.00
2022-12-24T04:20:34.262Z,100.00
2022-12-24T04:22:37.306Z,100.00
2022-12-24T04:24:40.324Z,100.00
2022-12-24T04:26:44.975Z,100.00
2022-12-24T04:28:48.452Z,100.00
2022-12-24T04:30:51.535Z,100.00
2022-12-24T04:32:54.525Z,100.00
2022-12-24T04:34:57.450Z,100.00
2022-12-24T04:37:00.576Z,100.00
2022-12-24T04:39:03.579Z,100.00
2022-12-24T04:41:08.323Z,100.00
2022-12-24T04:43:13.981Z,100.00
2022-12-24T04:45:17.013Z,100.00
2022-12-24T04:47:20.117Z,100.00
2022-12-24T04:49:23.116Z,100.00
2022-12-24T04:51:27.190Z,100.00
2022-12-24T04:53:30.406Z,100.00
2022-12-24T04:55:33.387Z,100.00
2022-12-24T04:57:37.925Z,100.00
2022-12-24T04:59:42.303Z,100.00
2022-12-24T05:01:45.813Z,100.00
2022-12-24T05:03:49.516Z,100.00
2022-12-24T05:05:57.909Z,100.00
2022-12-24T05:08:04.267Z,100.00
2022-12-24T05:10:08.876Z,100.00
2022-12-24T05:12:11.870Z,100.00
2022-12-24T05:14:14.994Z,100.00
2022-12-24T05:16:20.870Z,100.00
2022-12-24T05:18:24.241Z,100.00
2022-12-24T05:20:27.201Z,100.00
2022-12-24T05:22:47.890Z,100.00
2022-12-24T05:25:08.835Z,100.00
2022-12-24T05:27:11.798Z,100.00
2022-12-24T05:29:15.054Z,100.00
2022-12-24T05:31:19.774Z,100.00
2022-12-24T05:33:22.868Z,100.00
2022-12-24T05:35:25.899Z,100.00
2022-12-24T05:37:28.989Z,100.00
2022-12-24T05:39:31.998Z,100.00
2022-12-24T05:41:35.192Z,100.00
2022-12-24T05:43:38.454Z,100.00
2022-12-24T05:45:41.611Z,100.00
2022-12-24T05:47:46.594Z,100.00
2022-12-24T05:49:49.611Z,100.00
2022-12-24T05:51:52.607Z,100.00
2022-12-24T05:53:55.811Z,100.00
2022-12-24T05:56:04.369Z,100.00
2022-12-24T05:58:07.366Z,100.00
2022-12-24T06:00:11.825Z,100.00
2022-12-24T06:02:18.006Z,100.00
2022-12-24T06:04:28.434Z,100.00
2022-12-24T06:06:32.166Z,100.00
2022-12-24T06:08:35.814Z,100.00
2022-12-24T06:10:38.889Z,100.00
2022-12-24T06:12:42.145Z,100.00
2022-12-24T06:14:45.569Z,100.00
2022-12-24T06:16:48.631Z,100.00
2022-12-24T06:18:51.978Z,100.00
2022-12-24T06:20:57.369Z,100.00
2022-12-24T06:23:01.122Z,100.00
2022-12-24T06:25:04.399Z,100.00
2022-12-24T06:27:07.537Z,100.00
2022-12-24T06:29:11.649Z,100.00
2022-12-24T06:31:16.910Z,100.00
2022-12-24T06:33:20.263Z,100.00
2022-12-24T06:35:23.365Z,100.00
2022-12-24T06:37:27.820Z,100.00
2022-12-24T06:39:32.830Z,100.00
2022-12-24T06:41:35.848Z,100.00
2022-12-24T06:43:39.059Z,100.00
2022-12-24T06:45:46.190Z,100.00
2022-12-24T06:47:49.436Z,100.00
2022-12-24T06:49:52.419Z,100.00
2022-12-24T06:51:55.837Z,100.00
2022-12-24T06:54:00.572Z,100.00
2022-12-24T06:56:04.238Z,100.00
2022-12-24T06:58:07.482Z,100.00
2022-12-24T07:00:12.269Z,100.00
2022-12-24T07:02:15.548Z,100.00
2022-12-24T07:04:20.600Z,100.00
2022-12-24T07:06:26.731Z,100.00
2022-12-24T07:08:29.925Z,100.00
2022-12-24T07:10:35.239Z,100.00
2022-12-24T07:12:38.399Z,100.00
2022-12-24T07:14:41.499Z,100.00
2022-12-24T07:16:45.832Z,100.00
2022-12-24T07:18:48.988Z,100.00
2022-12-24T07:20:52.080Z,100.00
2022-12-24T07:22:55.092Z,100.00
2022-12-24T07:24:58.103Z,100.00
2022-12-24T07:27:02.542Z,100.00
2022-12-24T07:29:05.654Z,100.00
2022-12-24T07:31:08.762Z,100.00
2022-12-24T07:33:11.859Z,100.00
2022-12-24T07:35:14.856Z,99.81
2022-12-24T07:37:17.869Z,99.67
2022-12-24T07:39:20.925Z,100.00
2022-12-24T07:41:24.086Z,100.00
2022-12-24T07:43:29.319Z,100.00
2022-12-24T07:45:32.574Z,100.00
2022-12-24T07:47:35.779Z,100.00
2022-12-24T07:49:39.151Z,100.00
2022-12-24T07:51:42.136Z,99.65
2022-12-24T07:53:47.886Z,99.32
2022-12-24T07:55:51.081Z,100.00
2022-12-24T07:57:54.225Z,100.00
2022-12-24T07:59:58.650Z,100.00
2022-12-24T08:02:01.894Z,100.00
2022-12-24T08:04:05.295Z,100.00
2022-12-24T08:06:08.674Z,100.00
2022-12-24T08:08:11.699Z,99.80
2022-12-24T08:10:14.669Z,100.00
2022-12-24T08:12:17.707Z,100.00
2022-12-24T08:14:23.983Z,100.00
2022-12-24T08:16:28.416Z,99.35
2022-12-24T08:18:31.759Z,100.00
2022-12-24T08:20:34.960Z,99.74
2022-12-24T08:22:38.224Z,100.00
2022-12-24T08:24:41.402Z,100.00
2022-12-24T08:26:44.426Z,100.00
2022-12-24T08:28:47.516Z,100.00
2022-12-24T08:30:51.888Z,100.00
2022-12-24T08:32:56.416Z,100.00
2022-12-24T08:34:59.568Z,99.61
2022-12-24T08:37:02.671Z,100.00
2022-12-24T08:39:08.819Z,100.00
2022-12-24T08:41:11.892Z,100.00
2022-12-24T08:43:15.152Z,100.00
2022-12-24T08:45:19.087Z,99.46
2022-12-24T08:47:22.325Z,99.85
2022-12-24T08:49:26.764Z,99.48
2022-12-24T08:51:30.056Z,100.00
2022-12-24T08:53:33.253Z,99.77
2022-12-24T08:55:36.566Z,99.39
2022-12-24T08:57:39.749Z,99.22
2022-12-24T08:59:43.183Z,100.00
2022-12-24T09:01:46.680Z,100.00
2022-12-24T09:03:50.479Z,98.67
2022-12-24T09:05:55.183Z,98.51
2022-12-24T09:08:00.473Z,99.60
2022-12-24T09:10:06.101Z,98.13
2022-12-24T09:12:10.264Z,96.66
2022-12-24T09:14:13.467Z,97.19
2022-12-24T09:16:17.416Z,98.29
2022-12-24T09:18:20.542Z,99.72
2022-12-24T09:20:24.547Z,99.57
2022-12-24T09:22:29.515Z,99.64
2022-12-24T09:24:33.499Z,100.00
2022-12-24T09:26:37.826Z,99.84
2022-12-24T09:28:41.898Z,98.42
2022-12-24T09:30:50.267Z,99.01
2022-12-24T09:33:03.441Z,98.04
2022-12-24T09:35:09.605Z,98.47
2022-12-24T09:37:12.996Z,97.60
2022-12-24T09:39:17.650Z,97.44
2022-12-24T09:41:34.316Z,96.78
2022-12-24T09:43:37.820Z,96.32
2022-12-24T09:45:43.496Z,96.63
2022-12-24T09:47:49.289Z,96.42
2022-12-24T09:49:54.571Z,96.44
2022-12-24T09:52:02.113Z,95.88
2022-12-24T09:54:09.041Z,95.71
2022-12-24T09:56:17.516Z,94.63
2022-12-24T09:58:26.354Z,94.94
2022-12-24T10:00:32.462Z,93.06
2022-12-24T10:02:35.970Z,92.69
2022-12-24T10:04:40.133Z,94.44
2022-12-24T10:06:51.784Z,91.76
2022-12-24T10:09:04.746Z,91.95
2022-12-24T10:11:16.501Z,91.43
2022-12-24T10:13:27.773Z,91.22
2022-12-24T10:15:34.716Z,90.79
2022-12-24T10:17:51.528Z,91.51
2022-12-24T10:20:01.521Z,88.69
2022-12-24T10:22:12.625Z,90.12
2022-12-24T10:24:19.802Z,89.68
2022-12-24T10:26:28.892Z,88.64
2022-12-24T10:28:35.886Z,87.90
2022-12-24T10:30:39.279Z,89.11
2022-12-24T10:32:43.177Z,89.80
2022-12-24T10:34:49.587Z,89.46
2022-12-24T10:36:53.005Z,89.12
2022-12-24T10:38:57.144Z,90.23
2022-12-24T10:41:00.732Z,89.99
2022-12-24T10:43:12.687Z,89.97
2022-12-24T10:45:19.267Z,90.61
2022-12-24T10:47:23.928Z,90.92
2022-12-24T10:49:33.726Z,90.51
2022-12-24T10:51:43.689Z,90.67
2022-12-24T10:53:50.138Z,90.66
2022-12-24T10:56:03.159Z,91.05
2022-12-24T10:58:16.077Z,90.75
2022-12-24T11:00:21.091Z,90.74
2022-12-24T11:02:34.072Z,90.19
2022-12-24T11:04:50.490Z,91.86
2022-12-24T11:06:56.901Z,91.04
2022-12-24T11:09:19.969Z,92.86
2022-12-24T11:11:24.594Z,93.18
2022-12-24T11:13:39.607Z,92.66
2022-12-24T11:15:45.691Z,92.68
2022-12-24T11:17:54.641Z,93.15
2022-12-24T11:19:58.459Z,93.43
2022-12-24T11:22:04.886Z,93.91
2022-12-24T11:24:15.444Z,94.05
2022-12-24T11:26:23.000Z,93.24
2022-12-24T11:28:29.582Z,93.81
2022-12-24T11:30:33.824Z,93.95
2022-12-24T11:32:37.274Z,93.30
2022-12-24T11:34:44.674Z,94.36
2022-12-24T11:36:47.960Z,94.76
2022-12-24T11:38:54.478Z,94.88
2022-12-24T11:41:06.526Z,94.28
2022-12-24T11:43:16.159Z,94.48
2022-12-24T11:45:24.243Z,95.03
2022-12-24T11:47:35.243Z,96.00
2022-12-24T11:49:38.585Z,96.20
2022-12-24T11:51:44.526Z,96.10
2022-12-24T11:53:52.105Z,96.41
2022-12-24T11:55:58.870Z,96.34
2022-12-24T11:58:06.343Z,96.93
2022-12-24T12:00:13.298Z,97.01
2022-12-24T12:02:26.823Z,97.59
2022-12-24T12:04:36.773Z,97.61
2022-12-24T12:06:42.007Z,97.53
2022-12-24T12:08:46.018Z,97.70
2022-12-24T12:10:49.663Z,98.39
2022-12-24T12:12:58.344Z,97.77
2022-12-24T12:15:05.043Z,98.56
2022-12-24T12:17:26.719Z,98.72
2022-12-24T12:19:33.159Z,99.02
2022-12-24T12:21:40.315Z,98.12
2022-12-24T12:23:45.852Z,99.07
2022-12-24T12:25:53.465Z,98.53
2022-12-24T12:27:58.163Z,100.00
2022-12-24T12:30:03.173Z,99.08
2022-12-24T12:32:09.273Z,99.91
2022-12-24T12:34:18.279Z,99.37
2022-12-24T12:36:24.626Z,99.05
2022-12-24T12:38:30.270Z,99.81
2022-12-24T12:40:54.981Z,100.00
2022-12-24T12:43:22.820Z,99.98
2022-12-24T12:45:39.317Z,100.00
2022-12-24T12:47:52.052Z,99.62
2022-12-24T12:50:04.194Z,99.57
2022-12-24T12:52:17.943Z,99.42
2022-12-24T12:54:31.639Z,99.99
2022-12-24T12:56:36.248Z,99.09
2022-12-24T12:58:42.737Z,99.76
2022-12-24T13:00:49.268Z,99.89
2022-12-24T13:03:07.678Z,98.73
2022-12-24T13:05:24.977Z,98.32
2022-12-24T13:07:49.453Z,99.24
2022-12-24T13:10:00.726Z,99.20
2022-12-24T13:12:14.400Z,99.26
2022-12-24T13:14:46.574Z,99.71
2022-12-24T13:17:35.254Z,98.86
2022-12-24T13:19:52.700Z,98.78
2022-12-24T13:21:58.819Z,98.14
2022-12-24T13:24:09.331Z,98.84
2022-12-24T13:26:14.018Z,99.17
2022-12-24T13:28:35.674Z,98.16
2022-12-24T13:30:43.318Z,98.25
2022-12-24T13:32:52.019Z,98.53
2022-12-24T13:34:56.465Z,99.56
2022-12-24T13:37:06.034Z,99.59
2022-12-24T13:39:19.915Z,99.51
2022-12-24T13:41:41.897Z,99.41
2022-12-24T13:44:04.915Z,99.52
2022-12-24T13:46:08.859Z,99.36
2022-12-24T13:48:23.358Z,98.72
2022-12-24T13:50:36.141Z,99.18
2022-12-24T13:52:45.167Z,98.60
2022-12-24T13:54:51.787Z,98.38
2022-12-24T13:56:55.044Z,98.47
2022-12-24T13:59:11.869Z,98.36
2022-12-24T14:01:17.031Z,97.61
2022-12-24T14:03:25.472Z,98.75
2022-12-24T14:05:33.224Z,98.01
2022-12-24T14:07:37.536Z,98.90
2022-12-24T14:09:50.057Z,99.03
2022-12-24T14:12:17.205Z,98.59
2022-12-24T14:14:29.136Z,98.49
2022-12-24T14:16:33.796Z,97.95
2022-12-24T14:18:40.858Z,98.90
2022-12-24T14:20:44.074Z,98.79
2022-12-24T14:22:47.691Z,99.40
2022-12-24T14:24:56.619Z,98.68
2022-12-24T14:27:02.568Z,99.17
2022-12-24T14:29:09.024Z,100.00
2022-12-24T14:31:16.111Z,98.81
2022-12-24T14:33:30.033Z,99.44
2022-12-24T14:35:38.486Z,99.07
2022-12-24T14:37:43.068Z,99.84
2022-12-24T14:39:56.743Z,99.90
2022-12-24T14:42:13.743Z,99.57
2022-12-24T14:44:24.825Z,100.00
2022-12-24T14:46:33.274Z,99.42
2022-12-24T14:48:42.533Z,99.64
2022-12-24T14:51:03.220Z,98.91
2022-12-24T14:53:19.284Z,100.00
2022-12-24T14:55:31.268Z,100.00
2022-12-24T14:57:35.710Z,100.00
2022-12-24T14:59:43.163Z,100.00
2022-12-24T15:01:48.864Z,100.00
2022-12-24T15:04:01.968Z,100.00
2022-12-24T15:06:07.275Z,100.00
2022-12-24T15:08:12.425Z,100.00
2022-12-24T15:10:30.690Z,100.00
2022-12-24T15:12:35.773Z,100.00
2022-12-24T15:14:43.999Z,100.00
2022-12-24T15:16:55.456Z,100.00
2022-12-24T15:19:02.323Z,100.00
2022-12-24T15:21:07.600Z,100.00
2022-12-24T15:23:19.896Z,100.00
2022-12-24T15:25:25.646Z,100.00
2022-12-24T15:27:34.160Z,100.00
2022-12-24T15:29:43.302Z,100.00
2022-12-24T15:31:46.727Z,100.00
2022-12-24T15:33:51.543Z,100.00
2022-12-24T15:35:55.230Z,100.00
2022-12-24T15:37:59.470Z,100.00
2022-12-24T15:40:08.254Z,99.82
2022-12-24T15:42:15.292Z,100.00
2022-12-24T15:44:19.232Z,100.00
2022-12-24T15:46:26.078Z,99.27
2022-12-24T15:48:31.264Z,100.00
2022-12-24T15:50:36.730Z,100.00
2022-12-24T15:52:41.521Z,100.00
2022-12-24T15:54:47.692Z,99.92
2022-12-24T15:56:52.747Z,100.00
2022-12-24T15:59:13.263Z,100.00
2022-12-24T16:01:30.023Z,100.00
2022-12-24T16:03:33.306Z,100.00
2022-12-24T16:05:37.494Z,100.00
2022-12-24T16:08:06.364Z,100.00
2022-12-24T16:10:24.992Z,100.00
2022-12-24T16:12:28.041Z,100.00
2022-12-24T16:14:31.740Z,100.00
2022-12-24T16:16:42.646Z,99.92
2022-12-24T16:18:50.313Z,99.94
2022-12-24T16:20:55.297Z,99.91
2022-12-24T16:22:58.324Z,99.37
2022-12-24T16:25:01.661Z,100.00
2022-12-24T16:27:11.968Z,99.21
2022-12-24T16:29:15.898Z,99.96
2022-12-24T16:31:20.475Z,100.00
2022-12-24T16:33:24.935Z,99.13
2022-12-24T16:35:29.884Z,100.00
2022-12-24T16:37:32.974Z,100.00
2022-12-24T16:39:36.428Z,100.00
2022-12-24T16:41:53.355Z,100.00
2022-12-24T16:43:56.320Z,100.00
2022-12-24T16:46:02.674Z,100.00
2022-12-24T16:48:07.364Z,100.00
2022-12-24T16:50:17.261Z,100.00
2022-12-24T16:52:22.560Z,100.00
2022-12-24T16:54:25.609Z,100.00
2022-12-24T16:56:29.144Z,100.00
2022-12-24T16:58:33.012Z,100.00
2022-12-24T17:00:37.367Z,100.00
2022-12-24T17:02:40.747Z,100.00
2022-12-24T17:04:44.277Z,100.00
2022-12-24T17:06:50.645Z,100.00
2022-12-24T17:08:55.047Z,100.00
2022-12-24T17:10:58.374Z,100.00
2022-12-24T17:13:01.941Z,100.00
2022-12-24T17:15:07.210Z,100.00
2022-12-24T17:17:20.637Z,100.00
2022-12-24T17:19:24.556Z,100.00
2022-12-24T17:21:30.433Z,100.00
2022-12-24T17:23:35.129Z,100.00
2022-12-24T17:25:40.076Z,100.00
2022-12-24T17:27:43.315Z,100.00
2022-12-24T17:29:46.750Z,100.00
2022-12-24T17:31:51.568Z,100.00
2022-12-24T17:33:55.248Z,100.00
2022-12-24T17:35:58.649Z,100.00
2022-12-24T17:38:02.316Z,100.00
2022-12-24T17:40:09.206Z,100.00
2022-12-24T17:42:14.277Z,100.00
2022-12-24T17:44:18.057Z,100.00
2022-12-24T17:46:22.881Z,100.00
2022-12-24T17:48:26.251Z,100.00
2022-12-24T17:50:29.580Z,100.00
2022-12-24T17:52:34.753Z,100.00
2022-12-24T17:54:38.249Z,100.00
2022-12-24T17:56:42.924Z,100.00
2022-12-24T17:58:47.513Z,100.00
2022-12-24T18:00:51.464Z,100.00
2022-12-24T18:02:55.201Z,100.00
2022-12-24T18:04:59.024Z,100.00
2022-12-24T18:07:03.270Z,100.00
2022-12-24T18:09:08.873Z,100.00
2022-12-24T18:11:13.718Z,100.00
2022-12-24T18:13:19.648Z,100.00
2022-12-24T18:15:23.574Z,100.00
2022-12-24T18:17:27.840Z,100.00
2022-12-24T18:19:31.677Z,100.00
2022-12-24T18:21:35.711Z,100.00
2022-12-24T18:23:39.252Z,100.00
2022-12-24T18:25:42.966Z,100.00
2022-12-24T18:27:46.582Z,100.00
2022-12-24T18:29:51.998Z,100.00
2022-12-24T18:31:55.773Z,100.00
2022-12-24T18:33:59.457Z,100.00
2022-12-24T18:36:03.165Z,100.00
2022-12-24T18:38:06.689Z,100.00
2022-12-24T18:40:11.310Z,100.00
2022-12-24T18:42:15.563Z,100.00
2022-12-24T18:44:24.667Z,100.00
2022-12-24T18:46:32.236Z,100.00
2022-12-24T18:48:35.866Z,100.00
2022-12-24T18:50:41.007Z,100.00
2022-12-24T18:52:44.488Z,100.00
2022-12-24T18:54:50.294Z,100.00
2022-12-24T18:56:54.085Z,100.00
2022-12-24T18:59:02.706Z,100.00
2022-12-24T19:01:12.384Z,100.00
2022-12-24T19:03:17.311Z,100.00
2022-12-24T19:05:20.991Z,100.00
2022-12-24T19:07:24.393Z,100.00
2022-12-24T19:09:27.766Z,100.00
2022-12-24T19:11:32.742Z,100.00
2022-12-24T19:13:36.376Z,100.00
2022-12-24T19:15:41.745Z,100.00
2022-12-24T19:17:45.767Z,100.00
2022-12-24T19:19:54.507Z,100.00
2022-12-24T19:21:58.447Z,100.00
2022-12-24T19:24:02.078Z,100.00
2022-12-24T19:26:06.033Z,100.00
2022-12-24T19:28:09.951Z,100.00
2022-12-24T19:30:14.799Z,100.00
2022-12-24T19:32:18.328Z,100.00
2022-12-24T19:34:21.758Z,100.00
2022-12-24T19:36:28.415Z,100.00
2022-12-24T19:38:31.842Z,100.00
2022-12-24T19:40:37.597Z,100.00
2022-12-24T19:42:41.191Z,100.00
2022-12-24T19:44:44.684Z,100.00
2022-12-24T19:46:48.253Z,100.00
2022-12-24T19:48:52.358Z,100.00
2022-12-24T19:51:01.938Z,100.00
2022-12-24T19:53:07.039Z,100.00
2022-12-24T19:55:11.721Z,100.00
2022-12-24T19:57:14.980Z,100.00
2022-12-24T19:59:19.003Z,100.00
2022-12-24T20:01:24.225Z,100.00
2022-12-24T20:03:27.900Z,100.00
2022-12-24T20:05:31.288Z,100.00
2022-12-24T20:07:34.744Z,100.00
2022-12-24T20:09:41.061Z,100.00
2022-12-24T20:11:44.554Z,100.00
2022-12-24T20:13:47.999Z,100.00
2022-12-24T20:15:51.557Z,100.00
2022-12-24T20:17:55.156Z,100.00
2022-12-24T20:19:58.689Z,100.00
2022-12-24T20:22:02.937Z,100.00
2022-12-24T20:24:07.898Z,100.00
2022-12-24T20:26:17.066Z,100.00
2022-12-24T20:28:20.840Z,100.00
2022-12-24T20:30:24.292Z,100.00
2022-12-24T20:32:29.545Z,100.00
2022-12-24T20:34:34.509Z,100.00
2022-12-24T20:36:38.585Z,100.00
2022-12-24T20:38:42.349Z,100.00
2022-12-24T20:40:47.684Z,100.00
2022-12-24T20:42:54.811Z,100.00
2022-12-24T20:45:00.711Z,100.00
2022-12-24T20:47:04.434Z,100.00
2022-12-24T20:49:07.858Z,100.00
2022-12-24T20:51:19.208Z,100.00
2022-12-24T20:53:26.481Z,100.00
2022-12-24T20:55:29.776Z,100.00
2022-12-24T20:57:36.364Z,100.00
2022-12-24T20:59:41.751Z,100.00
2022-12-24T21:01:49.592Z,100.00
2022-12-24T21:03:53.443Z,100.00
2022-12-24T21:05:56.637Z,100.00
2022-12-24T21:08:00.458Z,100.00
2022-12-24T21:10:04.110Z,100.00
2022-12-24T21:12:25.080Z,100.00
2022-12-24T21:14:28.833Z,100.00
2022-12-24T21:16:36.084Z,100.00
2022-12-24T21:18:39.412Z,100.00
2022-12-24T21:20:43.643Z,100.00
2022-12-24T21:22:47.129Z,100.00
2022-12-24T21:24:50.505Z,100.00
2022-12-24T21:26:53.985Z,100.00
2022-12-24T21:28:57.360Z,100.00
2022-12-24T21:31:00.950Z,100.00
2022-12-24T21:33:06.265Z,100.00
2022-12-24T21:35:10.650Z,100.00
2022-12-24T21:37:14.463Z,100.00
2022-12-24T21:39:17.866Z,100.00
2022-12-24T21:41:23.877Z,100.00
2022-12-24T21:43:27.364Z,100.00
2022-12-24T21:45:31.099Z,100.00
2022-12-24T21:47:38.297Z,100.00
2022-12-24T21:50:00.741Z,100.00
2022-12-24T21:52:04.048Z,100.00
2022-12-24T21:54:31.703Z,100.00
2022-12-24T21:56:55.729Z,100.00
2022-12-24T21:59:00.587Z,100.00
2022-12-24T22:01:08.161Z,100.00
2022-12-24T22:03:11.603Z,100.00
2022-12-24T22:05:16.895Z,100.00
2022-12-24T22:07:40.196Z,100.00
2022-12-24T22:10:01.237Z,100.00
2022-12-24T22:12:05.738Z,100.00
2022-12-24T22:14:08.858Z,100.00
2022-12-24T22:16:13.832Z,100.00
2022-12-24T22:18:17.831Z,100.00
2022-12-24T22:20:22.463Z,100.00
2022-12-24T22:22:25.831Z,100.00
2022-12-24T22:24:31.809Z,100.00
2022-12-24T22:26:35.483Z,100.00
2022-12-24T22:28:38.609Z,100.00
2022-12-24T22:30:43.534Z,100.00
2022-12-24T22:32:47.123Z,100.00
2022-12-24T22:34:51.340Z,100.00
2022-12-24T22:36:58.015Z,100.00
2022-12-24T22:39:01.841Z,100.00
2022-12-24T22:41:09.857Z,100.00
2022-12-24T22:43:14.009Z,100.00
2022-12-24T22:45:22.166Z,100.00
2022-12-24T22:47:26.174Z,100.00
2022-12-24T22:49:29.490Z,100.00
2022-12-24T22:51:38.298Z,100.00
2022-12-24T22:53:43.442Z,100.00
2022-12-24T22:55:46.968Z,100.00
2022-12-24T22:57:50.585Z,100.00
2022-12-24T22:59:53.920Z,100.00
2022-12-24T23:01:57.726Z,100.00
2022-12-24T23:04:02.599Z,100.00
2022-12-24T23:06:07.980Z,100.00
2022-12-24T23:08:12.584Z,100.00
2022-12-24T23:10:17.202Z,100.00
2022-12-24T23:12:40.720Z,100.00
2022-12-24T23:14:58.099Z,100.00
2022-12-24T23:17:03.152Z,100.00
2022-12-24T23:19:07.131Z,100.00
2022-12-24T23:21:10.242Z,100.00
2022-12-24T23:23:13.772Z,100.00
2022-12-24T23:25:19.118Z,100.00
2022-12-24T23:27:22.465Z,100.00
2022-12-24T23:29:28.058Z,100.00
2022-12-24T23:31:31.555Z,100.00
2022-12-24T23:33:35.832Z,100.00
2022-12-24T23:35:39.141Z,100.00
2022-12-24T23:37:42.445Z,100.00
2022-12-24T23:39:46.034Z,100.00
2022-12-24T23:41:50.669Z,100.00
2022-12-24T23:43:54.063Z,100.00
2022-12-24T23:45:57.544Z,100.00
2022-12-24T23:48:00.702Z,100.00
2022-12-24T23:50:04.548Z,100.00
2022-12-24T23:52:07.788Z,100.00
2022-12-24T23:54:11.107Z,100.00
2022-12-24T23:56:14.237Z,100.00
2022-12-24T23:58:18.957Z,100.00
